createdAt,value
2024-02-29T00:00:07.995Z,15.40
2024-02-29T00:02:35.896Z,14.50
2024-02-29T00:05:03.708Z,14.80
2024-02-29T00:07:32.389Z,16.63
2024-02-29T00:10:01.695Z,15.47
2024-02-29T00:12:29.649Z,14.87
2024-02-29T00:14:57.586Z,17.63
2024-02-29T00:17:25.411Z,15.00
2024-02-29T00:19:53.259Z,14.23
2024-02-29T00:22:21.277Z,14.53
2024-02-29T00:24:49.062Z,17.10
2024-02-29T00:27:18.252Z,14.90
2024-02-29T00:29:46.200Z,15.87
2024-02-29T00:32:14.042Z,14.93
2024-02-29T00:34:41.930Z,15.63
2024-02-29T00:37:10.306Z,14.97
2024-02-29T00:39:38.205Z,16.87
2024-02-29T00:42:06.124Z,16.20
2024-02-29T00:44:35.239Z,13.47
2024-02-29T00:47:03.544Z,16.17
2024-02-29T00:49:31.985Z,13.90
2024-02-29T00:52:00.009Z,14.77
2024-02-29T00:54:28.045Z,15.03
2024-02-29T00:56:56.012Z,16.27
2024-02-29T00:59:24.034Z,15.17
2024-02-29T01:01:54.069Z,12.33
2024-02-29T01:04:29.625Z,13.60
2024-02-29T01:07:07.755Z,12.50
2024-02-29T01:09:36.349Z,13.97
2024-02-29T01:12:05.299Z,15.00
2024-02-29T01:14:38.291Z,16.40
2024-02-29T01:17:11.621Z,14.10
2024-02-29T01:19:46.799Z,12.87
2024-02-29T01:22:18.147Z,14.53
2024-02-29T01:24:48.286Z,12.60
2024-02-29T01:27:17.108Z,14.30
2024-02-29T01:29:47.607Z,13.63
2024-02-29T01:32:26.368Z,14.07
2024-02-29T01:34:57.363Z,12.80
2024-02-29T01:37:26.678Z,13.60
2024-02-29T01:39:58.415Z,13.93
2024-02-29T01:42:27.581Z,13.10
2024-02-29T01:44:57.466Z,14.67
2024-02-29T01:47:29.466Z,12.67
2024-02-29T01:50:01.337Z,14.87
2024-02-29T01:52:35.740Z,14.33
2024-02-29T01:55:05.335Z,13.20
2024-02-29T01:57:36.074Z,11.63
2024-02-29T02:00:05.985Z,13.60
2024-02-29T02:02:40.043Z,14.50
2024-02-29T02:05:10.083Z,12.30
2024-02-29T02:07:40.428Z,12.83
2024-02-29T02:10:16.239Z,12.13
2024-02-29T02:12:51.462Z,12.20
2024-02-29T02:15:20.522Z,14.20
2024-02-29T02:17:51.637Z,12.47
2024-02-29T02:20:25.967Z,12.63
2024-02-29T02:22:55.257Z,12.80
2024-02-29T02:25:24.042Z,13.10
2024-02-29T02:27:54.556Z,12.07
2024-02-29T02:30:26.175Z,13.30
2024-02-29T02:32:57.920Z,11.47
2024-02-29T02:35:30.619Z,12.30
2024-02-29T02:37:59.593Z,11.23
2024-02-29T02:40:28.339Z,12.40
2024-02-29T02:42:59.701Z,12.57
2024-02-29T02:45:31.975Z,12.47
2024-02-29T02:47:59.893Z,11.13
2024-02-29T02:50:29.045Z,12.30
2024-02-29T02:52:56.825Z,12.20
2024-02-29T02:55:24.634Z,12.00
2024-02-29T02:57:52.436Z,11.27
2024-02-29T03:00:20.518Z,11.70
2024-02-29T03:02:48.730Z,12.37
2024-02-29T03:05:17.047Z,12.27
2024-02-29T03:07:46.808Z,12.20
2024-02-29T03:10:14.740Z,11.80
2024-02-29T03:12:42.875Z,11.40
2024-02-29T03:15:12.078Z,11.57
2024-02-29T03:17:39.978Z,12.00
2024-02-29T03:20:13.247Z,11.00
2024-02-29T03:22:41.335Z,13.20
2024-02-29T03:25:11.801Z,10.83
2024-02-29T03:27:39.594Z,11.57
2024-02-29T03:30:08.655Z,11.83
2024-02-29T03:32:36.633Z,10.73
2024-02-29T03:35:06.526Z,11.00
2024-02-29T03:37:34.938Z,10.53
2024-02-29T03:40:03.095Z,10.47
2024-02-29T03:42:33.638Z,10.00
2024-02-29T03:45:01.658Z,10.27
2024-02-29T03:47:29.473Z,11.10
2024-02-29T03:49:58.737Z,10.20
2024-02-29T03:52:26.595Z,10.20
2024-02-29T03:54:54.682Z,10.50
2024-02-29T03:57:22.518Z,11.03
2024-02-29T03:59:52.429Z,11.67
2024-02-29T04:02:20.219Z,10.20
2024-02-29T04:04:48.240Z,10.93
2024-02-29T04:07:16.141Z,10.57
2024-02-29T04:09:44.099Z,10.00
2024-02-29T04:12:12.165Z,11.57
2024-02-29T04:14:40.349Z,9.17
2024-02-29T04:17:09.565Z,9.20
2024-02-29T04:19:39.126Z,8.50
2024-02-29T04:22:06.887Z,9.57
2024-02-29T04:24:34.736Z,7.47
2024-02-29T04:27:02.612Z,8.57
2024-02-29T04:29:30.447Z,8.20
2024-02-29T04:31:58.383Z,9.70
2024-02-29T04:34:28.732Z,8.27
2024-02-29T04:36:56.678Z,9.30
2024-02-29T04:39:24.500Z,7.30
2024-02-29T04:41:52.491Z,7.70
2024-02-29T04:44:20.479Z,7.50
2024-02-29T04:46:48.322Z,7.83
2024-02-29T04:49:16.279Z,8.40
2024-02-29T04:51:45.704Z,8.10
2024-02-29T04:54:13.693Z,7.73
2024-02-29T04:56:41.584Z,9.90
2024-02-29T04:59:10.344Z,8.40
2024-02-29T05:01:38.339Z,7.10
2024-02-29T05:04:06.508Z,8.10
2024-02-29T05:06:34.499Z,7.10
2024-02-29T05:09:04.132Z,7.43
2024-02-29T05:11:31.986Z,7.30
2024-02-29T05:13:59.834Z,7.03
2024-02-29T05:16:28.564Z,7.40
2024-02-29T05:18:56.581Z,7.00
2024-02-29T05:21:24.324Z,7.50
2024-02-29T05:23:52.356Z,7.97
2024-02-29T05:26:21.662Z,8.17
2024-02-29T05:28:49.587Z,7.73
2024-02-29T05:31:17.471Z,7.17
2024-02-29T05:33:45.583Z,8.07
2024-02-29T05:36:15.357Z,7.40
2024-02-29T05:38:45.260Z,8.50
2024-02-29T05:41:13.829Z,7.80
2024-02-29T05:43:43.172Z,8.30
2024-02-29T05:46:11.218Z,7.47
2024-02-29T05:48:39.134Z,6.67
2024-02-29T05:51:08.633Z,8.50
2024-02-29T05:53:36.694Z,8.20
2024-02-29T05:56:05.029Z,8.30
2024-02-29T05:58:33.019Z,8.33
2024-02-29T06:01:03.135Z,8.20
2024-02-29T06:03:31.173Z,8.67
2024-02-29T06:06:01.289Z,7.90
2024-02-29T06:08:29.975Z,8.70
2024-02-29T06:11:00.727Z,9.20
2024-02-29T06:13:33.087Z,8.73
2024-02-29T06:16:04.486Z,8.47
2024-02-29T06:18:34.964Z,8.30
2024-02-29T06:21:05.285Z,7.43
2024-02-29T06:23:33.275Z,8.23
2024-02-29T06:26:01.247Z,7.43
2024-02-29T06:28:29.842Z,7.87
2024-02-29T06:30:58.001Z,7.87
2024-02-29T06:33:27.642Z,7.57
2024-02-29T06:35:55.489Z,7.00
2024-02-29T06:38:23.524Z,7.93
2024-02-29T06:40:51.594Z,8.10
2024-02-29T06:43:19.761Z,7.20
2024-02-29T06:45:49.222Z,7.50
2024-02-29T06:48:19.183Z,8.90
2024-02-29T06:50:48.417Z,7.33
2024-02-29T06:53:16.353Z,7.37
2024-02-29T06:55:47.177Z,7.43
2024-02-29T06:58:17.734Z,7.30
2024-02-29T07:00:49.508Z,8.40
2024-02-29T07:03:24.755Z,8.27
2024-02-29T07:05:54.212Z,7.97
2024-02-29T07:08:22.213Z,8.43
2024-02-29T07:10:53.771Z,8.90
2024-02-29T07:13:27.658Z,8.30
2024-02-29T07:15:56.080Z,9.27
2024-02-29T07:18:26.752Z,9.20
2024-02-29T07:20:55.846Z,12.07
2024-02-29T07:23:25.759Z,10.00
2024-02-29T07:25:54.569Z,10.63
2024-02-29T07:28:22.507Z,11.53
2024-02-29T07:30:50.313Z,11.13
2024-02-29T07:33:18.372Z,12.80
2024-02-29T07:35:46.568Z,11.97
2024-02-29T07:38:16.338Z,12.50
2024-02-29T07:40:44.292Z,12.87
2024-02-29T07:43:12.155Z,12.87
2024-02-29T07:45:40.151Z,14.83
2024-02-29T07:48:08.278Z,14.13
2024-02-29T07:50:36.292Z,14.37
2024-02-29T07:53:07.524Z,13.30
2024-02-29T07:55:40.362Z,13.50
2024-02-29T07:58:13.315Z,13.30
2024-02-29T08:00:47.856Z,14.00
2024-02-29T08:03:15.893Z,16.00
2024-02-29T08:05:43.738Z,15.70
2024-02-29T08:08:12.618Z,14.73
2024-02-29T08:10:42.180Z,12.27
2024-02-29T08:13:13.276Z,13.67
2024-02-29T08:15:41.126Z,14.43
2024-02-29T08:18:09.871Z,12.80
2024-02-29T08:20:39.652Z,12.93
2024-02-29T08:23:12.526Z,13.30
2024-02-29T08:25:43.613Z,12.63
2024-02-29T08:28:11.717Z,15.37
2024-02-29T08:30:44.981Z,14.07
2024-02-29T08:33:12.980Z,16.80
2024-02-29T08:35:41.087Z,14.60
2024-02-29T08:38:08.889Z,15.90
2024-02-29T08:40:36.873Z,15.60
2024-02-29T08:43:06.230Z,12.47
2024-02-29T08:45:34.083Z,14.20
2024-02-29T08:48:02.243Z,14.40
2024-02-29T08:50:30.396Z,16.23
2024-02-29T08:52:58.226Z,15.80
2024-02-29T08:55:26.383Z,14.70
2024-02-29T08:57:54.447Z,12.50
2024-02-29T09:00:27.117Z,14.77
2024-02-29T09:02:55.472Z,15.10
2024-02-29T09:05:23.587Z,13.67
2024-02-29T09:07:51.793Z,14.57
2024-02-29T09:10:19.924Z,13.03
2024-02-29T09:12:47.880Z,12.50
2024-02-29T09:15:15.924Z,13.53
2024-02-29T09:17:45.570Z,14.67
2024-02-29T09:20:15.374Z,13.67
2024-02-29T09:22:45.550Z,13.60
2024-02-29T09:25:13.540Z,11.47
2024-02-29T09:27:43.876Z,12.20
2024-02-29T09:30:12.363Z,13.00
2024-02-29T09:32:40.643Z,12.40
2024-02-29T09:35:13.764Z,11.07
2024-02-29T09:37:41.563Z,10.73
2024-02-29T09:40:10.889Z,11.27
2024-02-29T09:42:39.076Z,11.50
2024-02-29T09:45:12.977Z,11.70
2024-02-29T09:47:42.799Z,9.97
2024-02-29T09:50:13.015Z,10.53
2024-02-29T09:52:41.122Z,11.87
2024-02-29T09:55:14.877Z,10.50
2024-02-29T09:57:46.706Z,10.40
2024-02-29T10:00:16.105Z,10.40
2024-02-29T10:02:45.860Z,10.17
2024-02-29T10:05:15.198Z,9.50
2024-02-29T10:07:56.637Z,8.90
2024-02-29T10:10:27.120Z,9.57
2024-02-29T10:12:59.358Z,8.50
2024-02-29T10:15:31.342Z,9.67
2024-02-29T10:17:59.478Z,9.57
2024-02-29T10:20:38.054Z,10.37
2024-02-29T10:23:12.359Z,7.97
2024-02-29T10:25:40.721Z,8.27
2024-02-29T10:28:19.198Z,10.10
2024-02-29T10:30:52.600Z,8.37
2024-02-29T10:33:23.229Z,9.10
2024-02-29T10:35:55.441Z,7.83
2024-02-29T10:38:23.739Z,8.10
2024-02-29T10:40:53.485Z,8.27
2024-02-29T10:43:23.369Z,8.10
2024-02-29T10:45:52.992Z,8.77
2024-02-29T10:48:26.823Z,8.60
2024-02-29T10:51:02.218Z,8.20
2024-02-29T10:53:42.103Z,7.43
2024-02-29T10:56:18.732Z,7.57
2024-02-29T10:58:47.601Z,8.77
2024-02-29T11:01:15.784Z,7.07
2024-02-29T11:03:44.037Z,8.03
2024-02-29T11:06:14.599Z,7.90
2024-02-29T11:08:45.844Z,7.93
2024-02-29T11:11:14.350Z,7.67
2024-02-29T11:13:42.955Z,8.27
2024-02-29T11:16:18.043Z,7.00
2024-02-29T11:18:49.251Z,7.00
2024-02-29T11:21:29.738Z,6.70
2024-02-29T11:24:04.036Z,5.80
2024-02-29T11:26:37.840Z,6.67
2024-02-29T11:29:16.223Z,6.70
2024-02-29T11:31:46.096Z,6.10
2024-02-29T11:34:16.729Z,6.90
2024-02-29T11:36:53.478Z,7.60
2024-02-29T11:39:24.689Z,7.10
2024-02-29T11:42:04.577Z,6.27
2024-02-29T11:44:33.188Z,6.60
2024-02-29T11:47:04.453Z,6.90
2024-02-29T11:49:36.669Z,5.63
2024-02-29T11:52:06.147Z,5.60
2024-02-29T11:54:34.602Z,6.40
2024-02-29T11:57:07.225Z,6.50
2024-02-29T11:59:35.148Z,6.07
2024-02-29T12:02:03.276Z,5.80
2024-02-29T12:04:31.252Z,5.80
2024-02-29T12:06:59.280Z,5.63
2024-02-29T12:09:28.730Z,6.90
2024-02-29T12:11:58.718Z,6.07
2024-02-29T12:14:26.735Z,5.53
2024-02-29T12:16:54.868Z,7.47
2024-02-29T12:19:24.756Z,6.63
2024-02-29T12:21:54.540Z,7.00
2024-02-29T12:24:24.148Z,6.30
2024-02-29T12:26:53.903Z,6.63
2024-02-29T12:29:24.154Z,5.30
2024-02-29T12:31:52.158Z,5.13
2024-02-29T12:34:20.339Z,5.67
2024-02-29T12:36:49.098Z,6.13
2024-02-29T12:39:20.553Z,6.23
2024-02-29T12:41:48.463Z,6.57
2024-02-29T12:44:20.672Z,5.23
2024-02-29T12:46:53.563Z,5.73
2024-02-29T12:49:29.097Z,5.53
2024-02-29T12:51:57.056Z,5.67
2024-02-29T12:54:25.165Z,5.87
2024-02-29T12:56:58.743Z,5.10
2024-02-29T12:59:28.033Z,6.17
2024-02-29T13:02:04.027Z,6.50
2024-02-29T13:04:32.147Z,5.87
2024-02-29T13:07:00.204Z,8.00
2024-02-29T13:09:28.026Z,5.50
2024-02-29T13:11:55.972Z,5.17
2024-02-29T13:14:23.759Z,3.93
2024-02-29T13:16:53.273Z,5.13
2024-02-29T13:19:21.135Z,4.73
2024-02-29T13:21:49.039Z,5.03
2024-02-29T13:24:19.023Z,4.63
2024-02-29T13:26:49.290Z,5.50
2024-02-29T13:29:17.478Z,5.63
2024-02-29T13:31:45.395Z,5.27
2024-02-29T13:34:14.658Z,5.43
2024-02-29T13:36:42.707Z,5.67
2024-02-29T13:39:12.994Z,6.13
2024-02-29T13:41:41.157Z,5.70
2024-02-29T13:44:09.064Z,6.30
2024-02-29T13:46:37.301Z,5.57
2024-02-29T13:49:21.140Z,5.60
2024-02-29T13:51:52.247Z,7.07
2024-02-29T13:54:20.216Z,6.30
2024-02-29T13:56:50.074Z,7.20
2024-02-29T13:59:18.129Z,7.23
2024-02-29T14:01:46.344Z,6.50
2024-02-29T14:04:14.559Z,8.17
2024-02-29T14:06:42.610Z,7.10
2024-02-29T14:09:18.846Z,7.73
2024-02-29T14:11:46.733Z,7.23
2024-02-29T14:14:17.536Z,7.43
2024-02-29T14:16:45.914Z,7.00
2024-02-29T14:19:13.840Z,7.10
2024-02-29T14:21:41.965Z,6.80
2024-02-29T14:24:10.108Z,6.60
2024-02-29T14:26:39.428Z,6.63
2024-02-29T14:29:07.439Z,6.80
2024-02-29T14:31:35.544Z,7.10
2024-02-29T14:34:03.646Z,7.30
2024-02-29T14:36:31.777Z,6.53
2024-02-29T14:39:00.962Z,6.57
2024-02-29T14:41:35.270Z,7.37
2024-02-29T14:44:07.129Z,8.60
2024-02-29T14:46:35.143Z,6.00
2024-02-29T14:49:04.508Z,7.00
2024-02-29T14:51:32.850Z,6.60
2024-02-29T14:54:03.911Z,6.67
2024-02-29T14:56:32.613Z,7.20
2024-02-29T14:59:01.319Z,7.40
2024-02-29T15:01:30.488Z,6.80
2024-02-29T15:03:59.110Z,7.60
2024-02-29T15:06:27.119Z,7.53
2024-02-29T15:08:58.175Z,7.23
2024-02-29T15:11:27.588Z,7.10
2024-02-29T15:13:55.937Z,7.17
2024-02-29T15:16:24.045Z,7.60
2024-02-29T15:18:55.635Z,7.87
2024-02-29T15:21:24.062Z,7.97
2024-02-29T15:23:55.388Z,8.27
2024-02-29T15:26:23.621Z,8.10
2024-02-29T15:28:52.235Z,7.03
2024-02-29T15:31:37.665Z,8.13
2024-02-29T15:34:06.918Z,7.53
2024-02-29T15:36:35.413Z,7.60
2024-02-29T15:39:07.923Z,7.63
2024-02-29T15:41:37.645Z,7.50
2024-02-29T15:44:05.809Z,7.97
2024-02-29T15:46:36.811Z,8.60
2024-02-29T15:49:06.474Z,8.50
2024-02-29T15:51:36.718Z,8.70
2024-02-29T15:54:04.980Z,9.83
2024-02-29T15:56:32.947Z,13.30
2024-02-29T15:59:01.111Z,12.80
2024-02-29T16:01:29.903Z,11.40
2024-02-29T16:03:57.973Z,11.23
2024-02-29T16:06:27.470Z,11.73
2024-02-29T16:08:57.465Z,11.63
2024-02-29T16:11:25.594Z,11.27
2024-02-29T16:13:55.283Z,11.20
2024-02-29T16:16:23.247Z,12.70
2024-02-29T16:18:54.315Z,10.67
2024-02-29T16:21:22.162Z,11.10
2024-02-29T16:23:55.816Z,11.70
2024-02-29T16:26:27.043Z,11.57
2024-02-29T16:28:55.182Z,10.50
2024-02-29T16:31:23.352Z,12.23
2024-02-29T16:33:51.429Z,12.70
2024-02-29T16:36:21.606Z,11.77
2024-02-29T16:38:51.072Z,12.83
2024-02-29T16:41:23.715Z,12.87
2024-02-29T16:43:53.146Z,11.40
2024-02-29T16:46:23.532Z,13.70
2024-02-29T16:48:52.264Z,12.43
2024-02-29T16:51:20.777Z,11.83
2024-02-29T16:53:51.626Z,12.73
2024-02-29T16:56:23.323Z,12.40
2024-02-29T16:58:51.614Z,12.73
2024-02-29T17:01:19.779Z,12.50
2024-02-29T17:03:48.564Z,11.63
2024-02-29T17:06:22.400Z,12.80
2024-02-29T17:08:50.271Z,12.40
2024-02-29T17:11:18.117Z,11.63
2024-02-29T17:13:50.647Z,10.60
2024-02-29T17:16:18.669Z,10.03
2024-02-29T17:18:47.901Z,10.07
2024-02-29T17:21:25.893Z,9.47
2024-02-29T17:23:56.920Z,10.43
2024-02-29T17:26:24.967Z,9.97
2024-02-29T17:28:56.291Z,9.30
2024-02-29T17:31:29.904Z,11.23
2024-02-29T17:33:57.701Z,12.37
2024-02-29T17:36:32.613Z,10.00
2024-02-29T17:39:04.076Z,10.00
2024-02-29T17:41:31.990Z,10.63
2024-02-29T17:44:04.270Z,10.93
2024-02-29T17:46:32.534Z,10.00
2024-02-29T17:49:00.710Z,10.67
2024-02-29T17:51:30.806Z,11.23
2024-02-29T17:54:00.366Z,10.33
2024-02-29T17:56:28.422Z,10.93
2024-02-29T17:58:58.709Z,10.30
2024-02-29T18:01:28.361Z,10.70
2024-02-29T18:03:57.303Z,10.77
2024-02-29T18:06:25.304Z,11.70
2024-02-29T18:08:56.657Z,11.70
2024-02-29T18:11:24.829Z,12.90
2024-02-29T18:13:55.129Z,12.37
2024-02-29T18:16:28.456Z,12.00
2024-02-29T18:18:57.278Z,11.77
2024-02-29T18:21:25.269Z,12.60
2024-02-29T18:23:53.129Z,11.60
2024-02-29T18:26:23.413Z,12.90
2024-02-29T18:28:51.701Z,11.93
2024-02-29T18:31:20.288Z,11.50
2024-02-29T18:33:49.498Z,13.73
2024-02-29T18:36:20.806Z,12.10
2024-02-29T18:38:52.156Z,12.87
2024-02-29T18:41:20.786Z,12.97
2024-02-29T18:43:49.061Z,15.00
2024-02-29T18:46:21.817Z,12.93
2024-02-29T18:48:56.930Z,13.47
2024-02-29T18:51:24.897Z,11.07
2024-02-29T18:53:56.206Z,14.00
2024-02-29T18:56:24.014Z,13.37
2024-02-29T18:58:53.941Z,13.40
2024-02-29T19:01:21.829Z,13.53
2024-02-29T19:03:53.816Z,13.60
2024-02-29T19:06:21.597Z,13.93
2024-02-29T19:08:49.836Z,13.00
2024-02-29T19:11:20.537Z,12.83
2024-02-29T19:13:51.772Z,12.83
2024-02-29T19:16:19.709Z,15.10
2024-02-29T19:18:49.655Z,15.10
2024-02-29T19:21:18.990Z,13.50
2024-02-29T19:23:48.989Z,14.63
2024-02-29T19:26:16.903Z,14.83
2024-02-29T19:28:44.951Z,19.33
2024-02-29T19:31:18.323Z,18.53
2024-02-29T19:33:51.707Z,18.17
2024-02-29T19:36:25.924Z,16.80
2024-02-29T19:38:58.335Z,16.20
2024-02-29T19:41:26.332Z,14.63
2024-02-29T19:43:54.172Z,15.20
2024-02-29T19:46:30.899Z,15.70
2024-02-29T19:49:00.194Z,16.20
2024-02-29T19:51:29.318Z,16.70
2024-02-29T19:53:57.238Z,16.30
2024-02-29T19:56:25.084Z,16.27
2024-02-29T19:58:53.690Z,16.60
2024-02-29T20:01:25.651Z,17.97
2024-02-29T20:03:56.367Z,17.43
2024-02-29T20:06:30.618Z,16.83
2024-02-29T20:08:58.777Z,18.00
2024-02-29T20:11:26.689Z,16.23
2024-02-29T20:14:00.813Z,16.70
2024-02-29T20:16:31.127Z,17.03
2024-02-29T20:18:59.139Z,16.57
2024-02-29T20:21:30.803Z,16.90
2024-02-29T20:23:59.868Z,16.80
2024-02-29T20:26:28.072Z,14.87
2024-02-29T20:28:55.820Z,14.40
2024-02-29T20:31:23.699Z,16.23
2024-02-29T20:33:54.685Z,15.63
2024-02-29T20:36:27.091Z,16.27
2024-02-29T20:38:54.898Z,16.67
2024-02-29T20:41:24.218Z,15.57
2024-02-29T20:43:52.187Z,13.97
2024-02-29T20:46:23.303Z,15.50
2024-02-29T20:48:53.991Z,16.50
2024-02-29T20:51:25.103Z,15.37
2024-02-29T20:53:53.014Z,13.53
2024-02-29T20:56:20.901Z,14.10
2024-02-29T20:58:57.617Z,14.33
2024-02-29T21:01:33.085Z,14.63
2024-02-29T21:04:01.173Z,13.87
2024-02-29T21:06:29.221Z,14.30
2024-02-29T21:08:59.958Z,14.43
2024-02-29T21:11:27.884Z,13.20
2024-02-29T21:14:00.200Z,13.33
2024-02-29T21:16:34.518Z,12.67
2024-02-29T21:19:04.708Z,13.03
2024-02-29T21:21:35.119Z,13.03
2024-02-29T21:24:03.018Z,13.30
2024-02-29T21:26:30.788Z,12.73
2024-02-29T21:29:00.068Z,13.23
2024-02-29T21:31:28.028Z,13.87
2024-02-29T21:33:56.044Z,13.37
2024-02-29T21:36:24.612Z,14.57
2024-02-29T21:38:52.361Z,15.20
2024-02-29T21:41:23.582Z,13.60
2024-02-29T21:43:53.806Z,13.27
2024-02-29T21:46:25.610Z,14.33
2024-02-29T21:48:53.659Z,14.47
2024-02-29T21:51:21.952Z,12.97
2024-02-29T21:53:50.739Z,16.20
2024-02-29T21:56:20.946Z,14.80
2024-02-29T21:58:51.192Z,14.13
2024-02-29T22:01:25.675Z,13.93
2024-02-29T22:03:53.553Z,14.67
2024-02-29T22:06:26.958Z,14.10
2024-02-29T22:08:59.090Z,14.40
2024-02-29T22:11:29.758Z,14.93
2024-02-29T22:13:57.934Z,13.40
2024-02-29T22:16:30.763Z,14.30
2024-02-29T22:18:59.020Z,14.10
2024-02-29T22:21:28.119Z,13.20
2024-02-29T22:23:56.283Z,12.70
2024-02-29T22:26:28.162Z,14.70
2024-02-29T22:28:56.104Z,14.67
2024-02-29T22:31:23.987Z,13.73
2024-02-29T22:34:01.802Z,12.30
2024-02-29T22:36:34.709Z,14.80
2024-02-29T22:39:04.492Z,14.40
2024-02-29T22:41:44.211Z,13.77
2024-02-29T22:44:20.136Z,12.63
2024-02-29T22:46:51.223Z,12.17
2024-02-29T22:49:23.159Z,12.60
2024-02-29T22:51:51.387Z,12.60
2024-02-29T22:54:19.389Z,13.80
2024-02-29T22:56:47.213Z,12.20
2024-02-29T22:59:14.963Z,12.43
2024-02-29T23:01:46.560Z,13.43
2024-02-29T23:04:15.067Z,12.40
2024-02-29T23:06:46.733Z,13.13
2024-02-29T23:09:14.614Z,12.23
2024-02-29T23:11:42.519Z,12.63
2024-02-29T23:14:10.393Z,11.70
2024-02-29T23:16:38.172Z,12.30
2024-02-29T23:19:06.196Z,12.07
2024-02-29T23:21:34.239Z,12.87
2024-02-29T23:24:03.336Z,12.90
2024-02-29T23:26:33.450Z,13.03
2024-02-29T23:29:01.792Z,12.07
2024-02-29T23:31:29.688Z,12.20
2024-02-29T23:33:57.636Z,12.83
2024-02-29T23:36:25.517Z,13.00
2024-02-29T23:38:53.296Z,12.87
2024-02-29T23:41:24.090Z,14.20
2024-02-29T23:43:55.483Z,12.13
2024-02-29T23:46:25.946Z,11.57
2024-02-29T23:48:54.235Z,12.60
2024-02-29T23:51:24.898Z,11.30
2024-02-29T23:53:58.920Z,12.63
2024-02-29T23:56:28.442Z,12.70
2024-02-29T23:58:56.277Z,13.03
